sensor_id;sensor_type;location;lat;lon;timestamp;temperature;humidity
28614;DHT22;15806;53.548;9.964;2023-03-31T00:01:01;12.60;99.90
28614;DHT22;15806;53.548;9.964;2023-03-31T00:02:41;12.40;99.90
28614;DHT22;15806;53.548;9.964;2023-03-31T00:04:22;12.50;99.90
28614;DHT22;15806;53.548;9.964;2023-03-31T00:06:03;12.50;99.90
28614;DHT22;15806;53.548;9.964;2023-03-31T00:07:44;12.60;99.90
28614;DHT22;15806;53.548;9.964;2023-03-31T00:10:02;12.60;99.90
28614;DHT22;15806;53.548;9.964;2023-03-31T00:11:44;12.60;99.90
28614;DHT22;15806;53.548;9.964;2023-03-31T00:13:25;12.60;99.90
28614;DHT22;15806;53.548;9.964;2023-03-31T00:15:08;12.50;99.90
28614;DHT22;15806;53.548;9.964;2023-03-31T00:16:49;12.60;99.90
28614;DHT22;15806;53.548;9.964;2023-03-31T00:18:29;12.60;99.90
28614;DHT22;15806;53.548;9.964;2023-03-31T00:20:14;12.30;99.90
28614;DHT22;15806;53.548;9.964;2023-03-31T00:21:55;12.30;99.90
28614;DHT22;15806;53.548;9.964;2023-03-31T00:23:35;12.30;99.90
28614;DHT22;15806;53.548;9.964;2023-03-31T00:25:16;12.00;99.90
28614;DHT22;15806;53.548;9.964;2023-03-31T00:27:03;12.10;99.90
28614;DHT22;15806;53.548;9.964;2023-03-31T00:28:44;12.10;99.90
28614;DHT22;15806;53.548;9.964;2023-03-31T00:30:24;12.10;99.90
28614;DHT22;15806;53.548;9.964;2023-03-31T00:32:05;12.00;99.90
28614;DHT22;15806;53.548;9.964;2023-03-31T00:33:45;12.20;99.90
28614;DHT22;15806;53.548;9.964;2023-03-31T00:35:26;12.10;99.90
28614;DHT22;15806;53.548;9.964;2023-03-31T00:37:06;12.30;99.90
28614;DHT22;15806;53.548;9.964;2023-03-31T00:38:48;12.40;99.90
28614;DHT22;15806;53.548;9.964;2023-03-31T00:40:28;12.30;99.90
28614;DHT22;15806;53.548;9.964;2023-03-31T00:42:10;12.20;99.90
28614;DHT22;15806;53.548;9.964;2023-03-31T00:44:00;12.40;99.90
28614;DHT22;15806;53.548;9.964;2023-03-31T00:45:44;12.20;99.90
28614;DHT22;15806;53.548;9.964;2023-03-31T00:47:24;12.20;99.90
28614;DHT22;15806;53.548;9.964;2023-03-31T00:49:18;12.10;99.90
28614;DHT22;15806;53.548;9.964;2023-03-31T00:51:03;12.20;99.90
28614;DHT22;15806;53.548;9.964;2023-03-31T00:52:46;12.20;99.90
28614;DHT22;15806;53.548;9.964;2023-03-31T00:54:29;12.10;99.90
28614;DHT22;15806;53.548;9.964;2023-03-31T00:56:12;12.00;99.90
28614;DHT22;15806;53.548;9.964;2023-03-31T00:57:54;12.00;99.90
28614;DHT22;15806;53.548;9.964;2023-03-31T00:59:41;11.90;99.90
28614;DHT22;15806;53.548;9.964;2023-03-31T01:01:23;11.80;99.90
28614;DHT22;15806;53.548;9.964;2023-03-31T01:03:05;11.80;99.90
28614;DHT22;15806;53.548;9.964;2023-03-31T01:04:51;11.80;99.90
28614;DHT22;15806;53.548;9.964;2023-03-31T01:06:32;11.80;99.90
28614;DHT22;15806;53.548;9.964;2023-03-31T01:08:14;11.70;99.90
28614;DHT22;15806;53.548;9.964;2023-03-31T01:10:01;11.70;99.90
28614;DHT22;15806;53.548;9.964;2023-03-31T01:11:43;11.80;99.90
28614;DHT22;15806;53.548;9.964;2023-03-31T01:13:25;11.70;99.90
28614;DHT22;15806;53.548;9.964;2023-03-31T01:15:06;11.70;99.90
28614;DHT22;15806;53.548;9.964;2023-03-31T01:16:47;11.60;99.90
28614;DHT22;15806;53.548;9.964;2023-03-31T01:18:28;11.70;99.90
28614;DHT22;15806;53.548;9.964;2023-03-31T01:27:04;11.60;99.90
28614;DHT22;15806;53.548;9.964;2023-03-31T01:29:07;11.60;99.90
28614;DHT22;15806;53.548;9.964;2023-03-31T01:36:58;11.60;99.90
28614;DHT22;15806;53.548;9.964;2023-03-31T01:39:05;11.70;99.90
28614;DHT22;15806;53.548;9.964;2023-03-31T01:44:54;11.60;99.90
28614;DHT22;15806;53.548;9.964;2023-03-31T01:46:55;11.60;99.90
28614;DHT22;15806;53.548;9.964;2023-03-31T01:50:39;11.60;99.90
28614;DHT22;15806;53.548;9.964;2023-03-31T01:52:27;11.60;99.90
28614;DHT22;15806;53.548;9.964;2023-03-31T01:59:39;11.60;99.90
28614;DHT22;15806;53.548;9.964;2023-03-31T02:01:34;11.60;99.90
28614;DHT22;15806;53.548;9.964;2023-03-31T02:03:25;11.60;99.90
28614;DHT22;15806;53.548;9.964;2023-03-31T02:05:19;11.60;99.90
28614;DHT22;15806;53.548;9.964;2023-03-31T02:07:17;11.60;99.90
28614;DHT22;15806;53.548;9.964;2023-03-31T02:09:07;11.60;99.90
28614;DHT22;15806;53.548;9.964;2023-03-31T02:10:50;11.60;99.90
28614;DHT22;15806;53.548;9.964;2023-03-31T02:12:32;11.60;99.90
28614;DHT22;15806;53.548;9.964;2023-03-31T02:14:17;11.60;99.90
28614;DHT22;15806;53.548;9.964;2023-03-31T02:16:03;11.60;99.90
28614;DHT22;15806;53.548;9.964;2023-03-31T02:17:46;11.60;99.90
28614;DHT22;15806;53.548;9.964;2023-03-31T02:19:35;11.60;99.90
28614;DHT22;15806;53.548;9.964;2023-03-31T02:21:19;11.60;99.90
28614;DHT22;15806;53.548;9.964;2023-03-31T02:22:59;11.60;99.90
28614;DHT22;15806;53.548;9.964;2023-03-31T02:24:41;11.60;99.90
28614;DHT22;15806;53.548;9.964;2023-03-31T02:26:29;11.60;99.90
28614;DHT22;15806;53.548;9.964;2023-03-31T02:28:17;11.70;99.90
28614;DHT22;15806;53.548;9.964;2023-03-31T02:29:58;11.60;99.90
28614;DHT22;15806;53.548;9.964;2023-03-31T02:31:53;11.60;99.90
28614;DHT22;15806;53.548;9.964;2023-03-31T02:33:35;11.70;99.90
28614;DHT22;15806;53.548;9.964;2023-03-31T02:35:18;11.60;99.90
28614;DHT22;15806;53.548;9.964;2023-03-31T02:36:59;11.70;99.90
28614;DHT22;15806;53.548;9.964;2023-03-31T02:39:04;11.60;99.90
28614;DHT22;15806;53.548;9.964;2023-03-31T02:40:44;11.70;99.90
28614;DHT22;15806;53.548;9.964;2023-03-31T02:42:24;11.70;99.90
28614;DHT22;15806;53.548;9.964;2023-03-31T02:44:05;11.70;99.90
28614;DHT22;15806;53.548;9.964;2023-03-31T02:45:47;11.60;99.90
28614;DHT22;15806;53.548;9.964;2023-03-31T02:47:28;11.70;99.90
28614;DHT22;15806;53.548;9.964;2023-03-31T02:49:10;11.70;99.90
28614;DHT22;15806;53.548;9.964;2023-03-31T03:06:43;11.80;99.90
28614;DHT22;15806;53.548;9.964;2023-03-31T03:08:41;11.80;99.90
28614;DHT22;15806;53.548;9.964;2023-03-31T03:12:26;11.80;99.90
28614;DHT22;15806;53.548;9.964;2023-03-31T03:16:39;11.80;99.90
28614;DHT22;15806;53.548;9.964;2023-03-31T03:18:20;11.80;99.90
28614;DHT22;15806;53.548;9.964;2023-03-31T03:20:02;11.80;99.90
28614;DHT22;15806;53.548;9.964;2023-03-31T03:21:44;11.70;99.90
28614;DHT22;15806;53.548;9.964;2023-03-31T03:23:24;11.80;99.90
28614;DHT22;15806;53.548;9.964;2023-03-31T03:25:07;11.80;99.90
28614;DHT22;15806;53.548;9.964;2023-03-31T03:26:48;11.80;99.90
28614;DHT22;15806;53.548;9.964;2023-03-31T03:28:29;11.80;99.90
28614;DHT22;15806;53.548;9.964;2023-03-31T03:30:11;11.80;99.90
28614;DHT22;15806;53.548;9.964;2023-03-31T03:31:52;11.80;99.90
28614;DHT22;15806;53.548;9.964;2023-03-31T03:33:33;11.80;99.90
28614;DHT22;15806;53.548;9.964;2023-03-31T03:35:13;11.80;99.90
28614;DHT22;15806;53.548;9.964;2023-03-31T03:36:54;11.80;99.90
28614;DHT22;15806;53.548;9.964;2023-03-31T03:38:34;11.90;99.90
28614;DHT22;15806;53.548;9.964;2023-03-31T03:40:15;11.90;99.90
28614;DHT22;15806;53.548;9.964;2023-03-31T03:41:56;11.90;99.90
28614;DHT22;15806;53.548;9.964;2023-03-31T03:43:36;11.90;99.90
28614;DHT22;15806;53.548;9.964;2023-03-31T03:45:17;11.90;99.90
28614;DHT22;15806;53.548;9.964;2023-03-31T03:46:57;11.90;99.90
28614;DHT22;15806;53.548;9.964;2023-03-31T03:48:38;11.90;99.90
28614;DHT22;15806;53.548;9.964;2023-03-31T03:50:18;11.90;99.90
28614;DHT22;15806;53.548;9.964;2023-03-31T03:51:59;11.90;99.90
28614;DHT22;15806;53.548;9.964;2023-03-31T03:53:39;11.90;99.90
28614;DHT22;15806;53.548;9.964;2023-03-31T03:55:20;11.90;99.90
28614;DHT22;15806;53.548;9.964;2023-03-31T03:57:00;11.90;99.90
28614;DHT22;15806;53.548;9.964;2023-03-31T03:58:41;11.90;99.90
28614;DHT22;15806;53.548;9.964;2023-03-31T04:00:21;12.00;99.90
28614;DHT22;15806;53.548;9.964;2023-03-31T04:02:02;11.90;99.90
28614;DHT22;15806;53.548;9.964;2023-03-31T04:03:43;11.90;99.90
28614;DHT22;15806;53.548;9.964;2023-03-31T04:05:23;12.00;99.90
28614;DHT22;15806;53.548;9.964;2023-03-31T04:07:04;11.90;99.90
28614;DHT22;15806;53.548;9.964;2023-03-31T04:08:45;11.90;99.90
28614;DHT22;15806;53.548;9.964;2023-03-31T04:10:25;11.90;99.90
28614;DHT22;15806;53.548;9.964;2023-03-31T04:12:06;11.90;99.90
28614;DHT22;15806;53.548;9.964;2023-03-31T04:13:47;12.00;99.90
28614;DHT22;15806;53.548;9.964;2023-03-31T04:15:27;12.00;99.90
28614;DHT22;15806;53.548;9.964;2023-03-31T04:17:08;11.90;99.90
28614;DHT22;15806;53.548;9.964;2023-03-31T04:18:48;12.00;99.90
28614;DHT22;15806;53.548;9.964;2023-03-31T04:20:29;11.90;99.90
28614;DHT22;15806;53.548;9.964;2023-03-31T04:22:09;11.90;99.90
28614;DHT22;15806;53.548;9.964;2023-03-31T04:23:51;11.90;99.90
28614;DHT22;15806;53.548;9.964;2023-03-31T04:25:33;11.90;99.90
28614;DHT22;15806;53.548;9.964;2023-03-31T04:27:13;11.90;99.90
28614;DHT22;15806;53.548;9.964;2023-03-31T04:28:53;11.90;99.90
28614;DHT22;15806;53.548;9.964;2023-03-31T04:30:34;11.90;99.90
28614;DHT22;15806;53.548;9.964;2023-03-31T04:32:14;11.90;99.90
28614;DHT22;15806;53.548;9.964;2023-03-31T04:33:56;11.90;99.90
28614;DHT22;15806;53.548;9.964;2023-03-31T04:35:37;12.00;99.90
28614;DHT22;15806;53.548;9.964;2023-03-31T04:37:20;11.90;99.90
28614;DHT22;15806;53.548;9.964;2023-03-31T04:39:01;11.90;99.90
28614;DHT22;15806;53.548;9.964;2023-03-31T04:40:41;11.90;99.90
28614;DHT22;15806;53.548;9.964;2023-03-31T04:42:22;11.90;99.90
28614;DHT22;15806;53.548;9.964;2023-03-31T04:44:02;11.90;99.90
28614;DHT22;15806;53.548;9.964;2023-03-31T04:45:43;11.90;99.90
28614;DHT22;15806;53.548;9.964;2023-03-31T04:47:24;11.90;99.90
28614;DHT22;15806;53.548;9.964;2023-03-31T04:49:04;11.90;99.90
28614;DHT22;15806;53.548;9.964;2023-03-31T04:50:45;11.90;99.90
28614;DHT22;15806;53.548;9.964;2023-03-31T04:52:26;11.90;99.90
28614;DHT22;15806;53.548;9.964;2023-03-31T04:54:06;11.90;99.90
28614;DHT22;15806;53.548;9.964;2023-03-31T04:55:48;11.90;99.90
28614;DHT22;15806;53.548;9.964;2023-03-31T04:57:29;11.90;99.90
28614;DHT22;15806;53.548;9.964;2023-03-31T04:59:09;11.90;99.90
28614;DHT22;15806;53.548;9.964;2023-03-31T05:00:51;11.80;99.90
28614;DHT22;15806;53.548;9.964;2023-03-31T05:02:32;11.80;99.90
28614;DHT22;15806;53.548;9.964;2023-03-31T05:04:12;11.80;99.90
28614;DHT22;15806;53.548;9.964;2023-03-31T05:05:53;11.90;99.90
28614;DHT22;15806;53.548;9.964;2023-03-31T05:07:33;11.80;99.90
28614;DHT22;15806;53.548;9.964;2023-03-31T05:09:14;11.80;99.90
28614;DHT22;15806;53.548;9.964;2023-03-31T05:10:54;11.70;99.90
28614;DHT22;15806;53.548;9.964;2023-03-31T05:12:38;11.80;99.90
28614;DHT22;15806;53.548;9.964;2023-03-31T05:14:19;11.80;99.90
28614;DHT22;15806;53.548;9.964;2023-03-31T05:16:08;11.80;99.90
28614;DHT22;15806;53.548;9.964;2023-03-31T05:17:49;11.80;99.90
28614;DHT22;15806;53.548;9.964;2023-03-31T05:19:30;11.80;99.90
28614;DHT22;15806;53.548;9.964;2023-03-31T05:21:18;11.70;99.90
28614;DHT22;15806;53.548;9.964;2023-03-31T05:22:59;11.70;99.90
28614;DHT22;15806;53.548;9.964;2023-03-31T05:24:39;11.70;99.90
28614;DHT22;15806;53.548;9.964;2023-03-31T05:26:20;11.80;99.90
28614;DHT22;15806;53.548;9.964;2023-03-31T05:28:01;11.70;99.90
28614;DHT22;15806;53.548;9.964;2023-03-31T05:29:41;11.80;99.90
28614;DHT22;15806;53.548;9.964;2023-03-31T05:31:22;11.70;99.90
28614;DHT22;15806;53.548;9.964;2023-03-31T05:33:03;11.70;99.90
28614;DHT22;15806;53.548;9.964;2023-03-31T05:34:43;11.70;99.90
28614;DHT22;15806;53.548;9.964;2023-03-31T05:36:24;11.70;99.90
28614;DHT22;15806;53.548;9.964;2023-03-31T05:38:04;11.70;99.90
28614;DHT22;15806;53.548;9.964;2023-03-31T05:39:45;11.60;99.90
28614;DHT22;15806;53.548;9.964;2023-03-31T05:41:25;11.60;99.90
28614;DHT22;15806;53.548;9.964;2023-03-31T05:43:06;11.60;99.90
28614;DHT22;15806;53.548;9.964;2023-03-31T05:44:46;11.60;99.90
28614;DHT22;15806;53.548;9.964;2023-03-31T05:46:27;11.60;99.90
28614;DHT22;15806;53.548;9.964;2023-03-31T05:48:08;11.60;99.90
28614;DHT22;15806;53.548;9.964;2023-03-31T05:49:48;11.60;99.90
28614;DHT22;15806;53.548;9.964;2023-03-31T05:51:29;11.60;99.90
28614;DHT22;15806;53.548;9.964;2023-03-31T05:53:09;11.60;99.90
28614;DHT22;15806;53.548;9.964;2023-03-31T05:54:50;11.60;99.90
28614;DHT22;15806;53.548;9.964;2023-03-31T05:56:30;11.60;99.90
28614;DHT22;15806;53.548;9.964;2023-03-31T05:58:11;11.60;99.90
28614;DHT22;15806;53.548;9.964;2023-03-31T05:59:51;11.60;99.90
28614;DHT22;15806;53.548;9.964;2023-03-31T06:01:32;11.60;99.90
28614;DHT22;15806;53.548;9.964;2023-03-31T06:03:13;11.60;99.90
28614;DHT22;15806;53.548;9.964;2023-03-31T06:04:53;11.60;99.90
28614;DHT22;15806;53.548;9.964;2023-03-31T06:06:34;11.60;99.90
28614;DHT22;15806;53.548;9.964;2023-03-31T06:08:14;11.60;99.90
28614;DHT22;15806;53.548;9.964;2023-03-31T06:09:55;11.50;99.90
28614;DHT22;15806;53.548;9.964;2023-03-31T06:11:35;11.60;99.90
28614;DHT22;15806;53.548;9.964;2023-03-31T06:13:16;11.60;99.90
28614;DHT22;15806;53.548;9.964;2023-03-31T06:14:56;11.60;99.90
28614;DHT22;15806;53.548;9.964;2023-03-31T06:16:37;11.60;99.90
28614;DHT22;15806;53.548;9.964;2023-03-31T06:18:17;11.60;99.90
28614;DHT22;15806;53.548;9.964;2023-03-31T06:19:58;11.60;99.90
28614;DHT22;15806;53.548;9.964;2023-03-31T06:21:42;11.60;99.90
28614;DHT22;15806;53.548;9.964;2023-03-31T06:23:23;11.60;99.90
28614;DHT22;15806;53.548;9.964;2023-03-31T06:25:05;11.60;99.90
28614;DHT22;15806;53.548;9.964;2023-03-31T06:26:45;11.60;99.90
28614;DHT22;15806;53.548;9.964;2023-03-31T06:28:26;11.50;99.90
28614;DHT22;15806;53.548;9.964;2023-03-31T06:30:07;11.60;99.90
28614;DHT22;15806;53.548;9.964;2023-03-31T06:31:47;11.60;99.90
28614;DHT22;15806;53.548;9.964;2023-03-31T06:33:28;11.60;99.90
28614;DHT22;15806;53.548;9.964;2023-03-31T06:35:08;11.50;99.90
28614;DHT22;15806;53.548;9.964;2023-03-31T06:36:49;11.60;99.90
28614;DHT22;15806;53.548;9.964;2023-03-31T06:38:30;11.60;99.90
28614;DHT22;15806;53.548;9.964;2023-03-31T06:40:11;11.60;99.90
28614;DHT22;15806;53.548;9.964;2023-03-31T06:41:51;11.60;99.90
28614;DHT22;15806;53.548;9.964;2023-03-31T06:43:32;11.50;99.90
28614;DHT22;15806;53.548;9.964;2023-03-31T06:45:13;11.50;99.90
28614;DHT22;15806;53.548;9.964;2023-03-31T06:46:53;11.50;99.90
28614;DHT22;15806;53.548;9.964;2023-03-31T06:48:34;11.60;99.90
28614;DHT22;15806;53.548;9.964;2023-03-31T06:50:15;11.60;99.90
28614;DHT22;15806;53.548;9.964;2023-03-31T06:51:55;11.60;99.90
28614;DHT22;15806;53.548;9.964;2023-03-31T06:53:36;11.60;99.90
28614;DHT22;15806;53.548;9.964;2023-03-31T06:55:16;11.60;99.90
28614;DHT22;15806;53.548;9.964;2023-03-31T06:56:57;11.70;99.90
28614;DHT22;15806;53.548;9.964;2023-03-31T06:58:37;11.60;99.90
28614;DHT22;15806;53.548;9.964;2023-03-31T07:00:18;11.60;99.90
28614;DHT22;15806;53.548;9.964;2023-03-31T07:01:59;11.60;99.90
28614;DHT22;15806;53.548;9.964;2023-03-31T07:03:39;11.60;99.90
28614;DHT22;15806;53.548;9.964;2023-03-31T07:05:20;11.60;99.90
28614;DHT22;15806;53.548;9.964;2023-03-31T07:07:01;11.70;99.90
28614;DHT22;15806;53.548;9.964;2023-03-31T07:08:42;11.60;99.90
28614;DHT22;15806;53.548;9.964;2023-03-31T07:10:24;11.60;99.90
28614;DHT22;15806;53.548;9.964;2023-03-31T07:12:05;11.60;99.90
28614;DHT22;15806;53.548;9.964;2023-03-31T07:13:45;11.60;99.90
28614;DHT22;15806;53.548;9.964;2023-03-31T07:15:26;11.60;99.90
28614;DHT22;15806;53.548;9.964;2023-03-31T07:17:06;11.60;99.90
28614;DHT22;15806;53.548;9.964;2023-03-31T07:18:47;11.60;99.90
28614;DHT22;15806;53.548;9.964;2023-03-31T07:20:28;11.60;99.90
28614;DHT22;15806;53.548;9.964;2023-03-31T07:22:09;11.70;99.90
28614;DHT22;15806;53.548;9.964;2023-03-31T07:23:49;11.70;99.90
28614;DHT22;15806;53.548;9.964;2023-03-31T07:25:30;11.70;99.90
28614;DHT22;15806;53.548;9.964;2023-03-31T07:27:11;11.70;99.90
28614;DHT22;15806;53.548;9.964;2023-03-31T07:28:51;11.70;99.90
28614;DHT22;15806;53.548;9.964;2023-03-31T07:30:32;11.70;99.90
28614;DHT22;15806;53.548;9.964;2023-03-31T07:32:13;11.70;99.90
28614;DHT22;15806;53.548;9.964;2023-03-31T07:33:53;11.70;99.90
28614;DHT22;15806;53.548;9.964;2023-03-31T07:35:37;11.70;99.90
28614;DHT22;15806;53.548;9.964;2023-03-31T07:37:18;11.70;99.90
28614;DHT22;15806;53.548;9.964;2023-03-31T07:38:59;11.70;99.90
28614;DHT22;15806;53.548;9.964;2023-03-31T07:40:40;11.70;99.90
28614;DHT22;15806;53.548;9.964;2023-03-31T07:42:20;11.70;99.90
28614;DHT22;15806;53.548;9.964;2023-03-31T07:44:01;11.70;99.90
28614;DHT22;15806;53.548;9.964;2023-03-31T07:45:41;11.70;99.90
28614;DHT22;15806;53.548;9.964;2023-03-31T07:47:23;11.60;99.90
28614;DHT22;15806;53.548;9.964;2023-03-31T07:49:03;11.50;99.90
28614;DHT22;15806;53.548;9.964;2023-03-31T07:50:44;11.50;99.90
28614;DHT22;15806;53.548;9.964;2023-03-31T07:52:24;11.60;99.90
28614;DHT22;15806;53.548;9.964;2023-03-31T07:54:05;11.70;99.90
28614;DHT22;15806;53.548;9.964;2023-03-31T07:55:47;11.80;99.90
28614;DHT22;15806;53.548;9.964;2023-03-31T07:57:27;11.70;99.90
28614;DHT22;15806;53.548;9.964;2023-03-31T07:59:08;11.80;99.90
28614;DHT22;15806;53.548;9.964;2023-03-31T08:00:48;11.80;99.90
28614;DHT22;15806;53.548;9.964;2023-03-31T08:02:29;11.80;99.90
28614;DHT22;15806;53.548;9.964;2023-03-31T08:04:11;11.80;99.90
28614;DHT22;15806;53.548;9.964;2023-03-31T08:05:52;11.80;99.90
28614;DHT22;15806;53.548;9.964;2023-03-31T08:07:37;11.90;99.90
28614;DHT22;15806;53.548;9.964;2023-03-31T08:09:18;11.90;99.90
28614;DHT22;15806;53.548;9.964;2023-03-31T08:10:59;11.90;99.90
28614;DHT22;15806;53.548;9.964;2023-03-31T08:12:39;12.00;99.90
28614;DHT22;15806;53.548;9.964;2023-03-31T08:14:20;11.90;99.90
28614;DHT22;15806;53.548;9.964;2023-03-31T08:16:00;12.00;99.90
28614;DHT22;15806;53.548;9.964;2023-03-31T08:17:41;12.10;99.90
28614;DHT22;15806;53.548;9.964;2023-03-31T08:19:22;12.10;99.90
28614;DHT22;15806;53.548;9.964;2023-03-31T08:21:02;12.10;99.90
28614;DHT22;15806;53.548;9.964;2023-03-31T08:22:43;12.10;99.90
28614;DHT22;15806;53.548;9.964;2023-03-31T08:24:23;12.10;99.90
28614;DHT22;15806;53.548;9.964;2023-03-31T08:26:12;12.10;99.90
28614;DHT22;15806;53.548;9.964;2023-03-31T08:27:53;12.20;99.90
28614;DHT22;15806;53.548;9.964;2023-03-31T08:29:34;12.10;99.90
28614;DHT22;15806;53.548;9.964;2023-03-31T08:31:15;12.20;99.90
28614;DHT22;15806;53.548;9.964;2023-03-31T08:32:55;12.30;99.90
28614;DHT22;15806;53.548;9.964;2023-03-31T08:34:36;12.40;99.90
28614;DHT22;15806;53.548;9.964;2023-03-31T08:36:16;12.30;99.90
28614;DHT22;15806;53.548;9.964;2023-03-31T08:37:57;12.50;99.90
28614;DHT22;15806;53.548;9.964;2023-03-31T08:39:37;12.40;99.90
28614;DHT22;15806;53.548;9.964;2023-03-31T08:43:06;12.40;99.90
28614;DHT22;15806;53.548;9.964;2023-03-31T08:46:41;12.40;99.90
28614;DHT22;15806;53.548;9.964;2023-03-31T08:48:37;12.40;99.90
28614;DHT22;15806;53.548;9.964;2023-03-31T08:50:22;12.50;99.90
28614;DHT22;15806;53.548;9.964;2023-03-31T08:52:08;12.60;99.90
28614;DHT22;15806;53.548;9.964;2023-03-31T08:54:00;12.50;99.90
28614;DHT22;15806;53.548;9.964;2023-03-31T08:55:52;12.80;99.90
28614;DHT22;15806;53.548;9.964;2023-03-31T08:59:34;12.70;99.90
28614;DHT22;15806;53.548;9.964;2023-03-31T09:03:03;12.70;99.90
28614;DHT22;15806;53.548;9.964;2023-03-31T09:04:48;12.80;99.90
28614;DHT22;15806;53.548;9.964;2023-03-31T09:08:49;12.80;99.90
28614;DHT22;15806;53.548;9.964;2023-03-31T09:10:52;12.70;99.90
28614;DHT22;15806;53.548;9.964;2023-03-31T09:14:53;12.90;99.90
28614;DHT22;15806;53.548;9.964;2023-03-31T09:16:37;13.10;99.90
28614;DHT22;15806;53.548;9.964;2023-03-31T09:18:34;12.80;99.90
28614;DHT22;15806;53.548;9.964;2023-03-31T09:20:20;12.90;99.90
28614;DHT22;15806;53.548;9.964;2023-03-31T09:22:04;13.00;99.90
28614;DHT22;15806;53.548;9.964;2023-03-31T09:25:40;13.30;99.90
28614;DHT22;15806;53.548;9.964;2023-03-31T09:27:23;13.40;99.90
28614;DHT22;15806;53.548;9.964;2023-03-31T09:29:16;13.20;99.90
28614;DHT22;15806;53.548;9.964;2023-03-31T09:30:57;13.50;99.90
28614;DHT22;15806;53.548;9.964;2023-03-31T09:32:38;13.40;99.90
28614;DHT22;15806;53.548;9.964;2023-03-31T09:34:28;13.50;99.90
28614;DHT22;15806;53.548;9.964;2023-03-31T09:36:17;13.50;99.90
28614;DHT22;15806;53.548;9.964;2023-03-31T09:37:58;13.40;99.90
28614;DHT22;15806;53.548;9.964;2023-03-31T09:39:39;13.40;99.90
28614;DHT22;15806;53.548;9.964;2023-03-31T09:41:20;13.40;99.90
28614;DHT22;15806;53.548;9.964;2023-03-31T09:43:07;13.00;99.90
28614;DHT22;15806;53.548;9.964;2023-03-31T09:44:52;13.30;99.90
28614;DHT22;15806;53.548;9.964;2023-03-31T09:46:34;13.20;99.90
28614;DHT22;15806;53.548;9.964;2023-03-31T09:48:19;13.20;99.90
28614;DHT22;15806;53.548;9.964;2023-03-31T09:50:00;13.20;99.90
28614;DHT22;15806;53.548;9.964;2023-03-31T09:51:45;13.10;99.90
28614;DHT22;15806;53.548;9.964;2023-03-31T09:55:44;13.20;99.90
28614;DHT22;15806;53.548;9.964;2023-03-31T09:59:21;13.50;99.90
28614;DHT22;15806;53.548;9.964;2023-03-31T10:01:05;13.60;99.90
28614;DHT22;15806;53.548;9.964;2023-03-31T10:02:53;13.50;99.90
28614;DHT22;15806;53.548;9.964;2023-03-31T10:04:34;13.50;99.90
28614;DHT22;15806;53.548;9.964;2023-03-31T10:06:15;13.30;99.90
28614;DHT22;15806;53.548;9.964;2023-03-31T10:09:56;13.40;99.90
28614;DHT22;15806;53.548;9.964;2023-03-31T10:11:37;13.40;99.90
28614;DHT22;15806;53.548;9.964;2023-03-31T10:13:25;13.40;99.90
28614;DHT22;15806;53.548;9.964;2023-03-31T10:15:26;13.50;99.90
28614;DHT22;15806;53.548;9.964;2023-03-31T10:17:10;13.50;99.90
28614;DHT22;15806;53.548;9.964;2023-03-31T10:18:53;13.30;99.90
28614;DHT22;15806;53.548;9.964;2023-03-31T10:20:41;13.30;99.90
28614;DHT22;15806;53.548;9.964;2023-03-31T10:24:08;13.10;99.90
28614;DHT22;15806;53.548;9.964;2023-03-31T10:29:35;13.40;99.90
28614;DHT22;15806;53.548;9.964;2023-03-31T10:31:20;13.50;99.90
28614;DHT22;15806;53.548;9.964;2023-03-31T10:33:13;13.60;99.90
28614;DHT22;15806;53.548;9.964;2023-03-31T10:34:55;13.60;99.90
28614;DHT22;15806;53.548;9.964;2023-03-31T10:36:36;13.50;99.90
28614;DHT22;15806;53.548;9.964;2023-03-31T10:38:25;13.30;99.90
28614;DHT22;15806;53.548;9.964;2023-03-31T10:40:26;13.40;99.90
28614;DHT22;15806;53.548;9.964;2023-03-31T10:42:07;13.50;99.90
28614;DHT22;15806;53.548;9.964;2023-03-31T10:43:53;13.30;99.90
28614;DHT22;15806;53.548;9.964;2023-03-31T10:45:43;13.40;99.90
28614;DHT22;15806;53.548;9.964;2023-03-31T10:47:32;13.40;99.90
28614;DHT22;15806;53.548;9.964;2023-03-31T10:49:27;13.60;99.90
28614;DHT22;15806;53.548;9.964;2023-03-31T10:51:15;13.30;99.90
28614;DHT22;15806;53.548;9.964;2023-03-31T10:53:05;13.30;99.90
28614;DHT22;15806;53.548;9.964;2023-03-31T10:54:47;13.30;99.90
28614;DHT22;15806;53.548;9.964;2023-03-31T10:56:34;13.30;99.90
28614;DHT22;15806;53.548;9.964;2023-03-31T10:58:26;13.40;99.90
28614;DHT22;15806;53.548;9.964;2023-03-31T11:00:17;13.10;99.90
28614;DHT22;15806;53.548;9.964;2023-03-31T11:08:44;13.00;99.90
28614;DHT22;15806;53.548;9.964;2023-03-31T11:10:56;13.10;99.90
28614;DHT22;15806;53.548;9.964;2023-03-31T11:12:50;13.00;99.90
28614;DHT22;15806;53.548;9.964;2023-03-31T11:15:00;13.10;99.90
28614;DHT22;15806;53.548;9.964;2023-03-31T11:17:03;12.90;99.90
28614;DHT22;15806;53.548;9.964;2023-03-31T11:23:42;13.10;99.90
28614;DHT22;15806;53.548;9.964;2023-03-31T11:25:49;13.10;99.90
28614;DHT22;15806;53.548;9.964;2023-03-31T11:39:37;13.00;99.90
28614;DHT22;15806;53.548;9.964;2023-03-31T11:41:45;13.00;99.90
28614;DHT22;15806;53.548;9.964;2023-03-31T11:44:05;13.00;99.90
28614;DHT22;15806;53.548;9.964;2023-03-31T11:50:40;13.10;99.90
28614;DHT22;15806;53.548;9.964;2023-03-31T11:52:55;13.30;99.90
28614;DHT22;15806;53.548;9.964;2023-03-31T11:55:05;13.50;99.90
28614;DHT22;15806;53.548;9.964;2023-03-31T11:57:02;13.10;99.90
28614;DHT22;15806;53.548;9.964;2023-03-31T11:58:51;13.10;99.90
28614;DHT22;15806;53.548;9.964;2023-03-31T12:00:47;13.30;99.90
28614;DHT22;15806;53.548;9.964;2023-03-31T12:04:52;13.60;99.90
28614;DHT22;15806;53.548;9.964;2023-03-31T12:06:38;14.00;99.90
28614;DHT22;15806;53.548;9.964;2023-03-31T12:12:10;13.90;99.90
28614;DHT22;15806;53.548;9.964;2023-03-31T12:14:01;14.20;99.90
28614;DHT22;15806;53.548;9.964;2023-03-31T12:15:47;14.30;99.90
28614;DHT22;15806;53.548;9.964;2023-03-31T12:17:31;14.00;99.90
28614;DHT22;15806;53.548;9.964;2023-03-31T12:19:25;14.10;99.90
28614;DHT22;15806;53.548;9.964;2023-03-31T12:21:08;14.10;99.90
28614;DHT22;15806;53.548;9.964;2023-03-31T12:22:49;14.30;99.90
28614;DHT22;15806;53.548;9.964;2023-03-31T12:24:31;14.40;99.90
28614;DHT22;15806;53.548;9.964;2023-03-31T12:28:34;14.00;99.90
28614;DHT22;15806;53.548;9.964;2023-03-31T12:30:34;14.30;99.90
28614;DHT22;15806;53.548;9.964;2023-03-31T12:32:19;14.40;99.90
28614;DHT22;15806;53.548;9.964;2023-03-31T12:34:06;14.60;99.90
28614;DHT22;15806;53.548;9.964;2023-03-31T12:39:51;14.80;99.90
28614;DHT22;15806;53.548;9.964;2023-03-31T12:41:42;14.80;99.90
28614;DHT22;15806;53.548;9.964;2023-03-31T12:43:32;14.90;99.90
28614;DHT22;15806;53.548;9.964;2023-03-31T12:45:27;15.00;99.90
28614;DHT22;15806;53.548;9.964;2023-03-31T12:47:39;14.50;99.90